EWG299 EDLW-LEPA
Flight info
| Callsign | EWG299 |
|---|---|
| Flight time | 2h 3m |
| Altitude | 24000 |
| Route | BAMSU2Q BAMSU M170 NVO/N0455F380 Y841 KENUM DCT GESLO/N0456F390 DCT LIMGO DCT SUTAL DCT GTQ DCT POGOL DCT LASAT DCT MOROK DCT GILIR DCT GEVEA DCT INCUS DCT BALSI DCT RETNO DCT TUPOX DCT MTG DCT DIVKO DCT VATIR N852 VERSO DCT LUNIK LUNIK3M |
| Aircraft | A20N/M-SDE2E3FGHIRWXY/LB1 |
Departure
| Time | 2026-05-06 19:47 |
|---|---|
| Airport | Dortmund Airport (EDLW) |
Arrival
| Time | 2026-05-06 21:50 |
|---|---|
| Airport | Palma de Mallorca Airport (LEPA) |
| Time | Latitude | Longitude | Altitude | Speed | Heading |
|---|---|---|---|---|---|
| 2026-05-06 19:10 | 51.51640 | 7.61477 | 436 ft | 0 kts | 151° |
| 2026-05-06 19:38 | 51.51653 | 7.61465 | 425 ft | 3 kts | 151° |
| 2026-05-06 19:39 | 51.51670 | 7.61450 | 421 ft | 3 kts | 151° |
| 2026-05-06 19:39 | 51.51689 | 7.61442 | 420 ft | 3 kts | 189° |
| 2026-05-06 19:39 | 51.51707 | 7.61451 | 425 ft | 3 kts | 211° |
| 2026-05-06 19:39 | 51.51717 | 7.61463 | 423 ft | 0 kts | 233° |
| 2026-05-06 19:41 | 51.51716 | 7.61457 | 423 ft | 6 kts | 242° |
| 2026-05-06 19:41 | 51.51675 | 7.61325 | 431 ft | 14 kts | 242° |
| 2026-05-06 19:42 | 51.51633 | 7.61202 | 432 ft | 12 kts | 241° |
| 2026-05-06 19:42 | 51.51595 | 7.61086 | 427 ft | 11 kts | 247° |
| 2026-05-06 19:42 | 51.51560 | 7.60962 | 432 ft | 18 kts | 241° |
| 2026-05-06 19:42 | 51.51491 | 7.60766 | 432 ft | 21 kts | 239° |
| 2026-05-06 19:43 | 51.51423 | 7.60572 | 434 ft | 11 kts | 241° |
| 2026-05-06 19:43 | 51.51421 | 7.60566 | 434 ft | 0 kts | 241° |
| 2026-05-06 19:43 | 51.51419 | 7.60560 | 434 ft | 0 kts | 241° |
| 2026-05-06 19:45 | 51.51418 | 7.60558 | 423 ft | 2 kts | 240° |
| 2026-05-06 19:45 | 51.51379 | 7.60449 | 431 ft | 24 kts | 240° |
| 2026-05-06 19:45 | 51.51423 | 7.60251 | 432 ft | 22 kts | 339° |
| 2026-05-06 19:45 | 51.51515 | 7.60325 | 425 ft | 6 kts | 60° |
| 2026-05-06 19:46 | 51.51535 | 7.60383 | 420 ft | 6 kts | 61° |
| 2026-05-06 19:46 | 51.51545 | 7.60412 | 420 ft | 0 kts | 61° |
| 2026-05-06 19:46 | 51.51581 | 7.60519 | 423 ft | 38 kts | 61° |
| 2026-05-06 19:46 | 51.51828 | 7.61201 | 422 ft | 103 kts | 59° |
| 2026-05-06 19:47 | 51.52268 | 7.62455 | 574 ft | 139 kts | 56° |
| 2026-05-06 19:47 | 51.52774 | 7.63745 | 1201 ft | 139 kts | 56° |
| 2026-05-06 19:47 | 51.53303 | 7.65261 | 1580 ft | 172 kts | 59° |
| 2026-05-06 19:47 | 51.53923 | 7.67088 | 1920 ft | 200 kts | 59° |
| 2026-05-06 19:48 | 51.54629 | 7.69131 | 2518 ft | 215 kts | 59° |
| 2026-05-06 19:48 | 51.55367 | 7.71235 | 3430 ft | 216 kts | 59° |
| 2026-05-06 19:48 | 51.55911 | 7.73501 | 4279 ft | 224 kts | 84° |
| 2026-05-06 19:48 | 51.55536 | 7.76001 | 4808 ft | 248 kts | 120° |
| 2026-05-06 19:49 | 51.54214 | 7.77900 | 4972 ft | 271 kts | 154° |
| 2026-05-06 19:49 | 51.52372 | 7.78712 | 5016 ft | 276 kts | 170° |
| 2026-05-06 19:49 | 51.50494 | 7.78422 | 5603 ft | 271 kts | 206° |
| 2026-05-06 19:49 | 51.49062 | 7.76505 | 6441 ft | 273 kts | 239° |
| 2026-05-06 19:50 | 51.48292 | 7.73742 | 6861 ft | 277 kts | 253° |
| 2026-05-06 19:50 | 51.47682 | 7.70794 | 6980 ft | 278 kts | 253° |
| 2026-05-06 19:50 | 51.47026 | 7.67854 | 6998 ft | 280 kts | 251° |
| 2026-05-06 19:50 | 51.46307 | 7.64952 | 6994 ft | 280 kts | 249° |
| 2026-05-06 19:51 | 51.45544 | 7.62070 | 7018 ft | 279 kts | 249° |
| 2026-05-06 19:51 | 51.44774 | 7.59277 | 7566 ft | 273 kts | 248° |
| 2026-05-06 19:51 | 51.44007 | 7.56550 | 8693 ft | 262 kts | 248° |
| 2026-05-06 19:51 | 51.43259 | 7.53914 | 9760 ft | 258 kts | 248° |
| 2026-05-06 19:52 | 51.42510 | 7.51290 | 10542 ft | 259 kts | 248° |
| 2026-05-06 19:52 | 51.41754 | 7.48650 | 11315 ft | 262 kts | 248° |
| 2026-05-06 19:52 | 51.40971 | 7.46002 | 12098 ft | 265 kts | 243° |
| 2026-05-06 19:52 | 51.39680 | 7.43891 | 12831 ft | 273 kts | 210° |
| 2026-05-06 19:53 | 51.37938 | 7.42703 | 13604 ft | 277 kts | 201° |
| 2026-05-06 19:53 | 51.36113 | 7.41691 | 14298 ft | 279 kts | 201° |
| 2026-05-06 19:53 | 51.34249 | 7.40628 | 14792 ft | 290 kts | 201° |
| 2026-05-06 19:53 | 51.32274 | 7.39440 | 14975 ft | 315 kts | 202° |
| 2026-05-06 19:54 | 51.30136 | 7.38105 | 14991 ft | 344 kts | 203° |
| 2026-05-06 19:54 | 51.27838 | 7.36644 | 14990 ft | 372 kts | 203° |
| 2026-05-06 19:54 | 51.25378 | 7.35069 | 14992 ft | 387 kts | 203° |
| 2026-05-06 19:54 | 51.22861 | 7.33455 | 15360 ft | 391 kts | 203° |
| 2026-05-06 19:55 | 51.20350 | 7.31851 | 16439 ft | 382 kts | 202° |
| 2026-05-06 19:55 | 51.17900 | 7.30424 | 17742 ft | 367 kts | 207° |
| 2026-05-06 19:55 | 51.15898 | 7.28059 | 18865 ft | 353 kts | 229° |
| 2026-05-06 19:55 | 51.14481 | 7.24935 | 19575 ft | 354 kts | 240° |
| 2026-05-06 19:56 | 51.13281 | 7.21453 | 19926 ft | 365 kts | 243° |
| 2026-05-06 19:56 | 51.12054 | 7.17770 | 20000 ft | 384 kts | 242° |
| 2026-05-06 19:56 | 51.10681 | 7.13991 | 20005 ft | 400 kts | 239° |
| 2026-05-06 19:56 | 51.09185 | 7.10287 | 20009 ft | 402 kts | 237° |
| 2026-05-06 19:57 | 51.07586 | 7.06639 | 20013 ft | 401 kts | 235° |
| 2026-05-06 19:57 | 51.05933 | 7.03057 | 20014 ft | 401 kts | 234° |
| 2026-05-06 19:57 | 51.04268 | 6.99539 | 20014 ft | 401 kts | 233° |
| 2026-05-06 19:57 | 51.02573 | 6.95993 | 20013 ft | 401 kts | 233° |
| 2026-05-06 19:58 | 51.00882 | 6.92458 | 20014 ft | 401 kts | 233° |
| 2026-05-06 19:58 | 50.99195 | 6.88924 | 20013 ft | 401 kts | 233° |
| 2026-05-06 19:58 | 50.97508 | 6.85389 | 20276 ft | 400 kts | 232° |
| 2026-05-06 19:58 | 50.95687 | 6.82166 | 21190 ft | 392 kts | 226° |
| 2026-05-06 19:59 | 50.93737 | 6.79218 | 22263 ft | 382 kts | 223° |
| 2026-05-06 19:59 | 50.91765 | 6.76470 | 23255 ft | 374 kts | 221° |
| 2026-05-06 19:59 | 50.89776 | 6.73790 | 23792 ft | 377 kts | 220° |
| 2026-05-06 19:59 | 50.87742 | 6.71072 | 23994 ft | 388 kts | 220° |
| 2026-05-06 20:00 | 50.85643 | 6.68249 | 24017 ft | 403 kts | 220° |
| 2026-05-06 20:00 | 50.83479 | 6.65304 | 24020 ft | 418 kts | 222° |
| 2026-05-06 20:00 | 50.81575 | 6.61801 | 24022 ft | 431 kts | 237° |
| 2026-05-06 20:00 | 50.80164 | 6.57552 | 24016 ft | 439 kts | 246° |
| 2026-05-06 20:01 | 50.79048 | 6.53056 | 24022 ft | 440 kts | 250° |
| 2026-05-06 20:01 | 50.78051 | 6.48486 | 24018 ft | 439 kts | 251° |
| 2026-05-06 20:01 | 50.77065 | 6.43909 | 24014 ft | 440 kts | 250° |
| 2026-05-06 20:01 | 50.76055 | 6.39392 | 24011 ft | 439 kts | 249° |
| 2026-05-06 20:02 | 50.74992 | 6.34866 | 24008 ft | 440 kts | 249° |
| 2026-05-06 20:02 | 50.73891 | 6.30359 | 24005 ft | 440 kts | 248° |
| 2026-05-06 20:02 | 50.73146 | 6.27382 | 24003 ft | 440 kts | 247° |
| 2026-05-06 20:02 | 50.71679 | 6.23147 | 24009 ft | 439 kts | 231° |
| 2026-05-06 20:03 | 50.68648 | 6.18992 | 24009 ft | 437 kts | 208° |
| 2026-05-06 20:03 | 50.66764 | 6.17697 | 24001 ft | 437 kts | 197° |
| 2026-05-06 20:03 | 50.63774 | 6.16922 | 23999 ft | 437 kts | 182° |
| 2026-05-06 20:03 | 50.60761 | 6.16933 | 23995 ft | 438 kts | 179° |
| 2026-05-06 20:04 | 50.57710 | 6.16977 | 23993 ft | 438 kts | 181° |
| 2026-05-06 20:04 | 50.54651 | 6.16739 | 23994 ft | 438 kts | 186° |
| 2026-05-06 20:04 | 50.51622 | 6.16169 | 23996 ft | 437 kts | 189° |
| 2026-05-06 20:04 | 50.48618 | 6.15334 | 23996 ft | 437 kts | 192° |
| 2026-05-06 20:05 | 50.45677 | 6.14345 | 23998 ft | 437 kts | 193° |
| 2026-05-06 20:05 | 50.42707 | 6.13254 | 23999 ft | 437 kts | 194° |
| 2026-05-06 20:05 | 50.39740 | 6.12129 | 23997 ft | 438 kts | 194° |
| 2026-05-06 20:05 | 50.36777 | 6.11004 | 23994 ft | 438 kts | 194° |
| 2026-05-06 20:06 | 50.33809 | 6.09889 | 23997 ft | 438 kts | 194° |
| 2026-05-06 20:06 | 50.30876 | 6.08802 | 23995 ft | 438 kts | 194° |
| 2026-05-06 20:06 | 50.27902 | 6.07712 | 23995 ft | 438 kts | 194° |
| 2026-05-06 20:06 | 50.24928 | 6.06631 | 23994 ft | 438 kts | 194° |
| 2026-05-06 20:07 | 50.21951 | 6.05554 | 24000 ft | 438 kts | 194° |
| 2026-05-06 20:07 | 50.18977 | 6.04482 | 23999 ft | 438 kts | 194° |
| 2026-05-06 20:07 | 50.15999 | 6.03409 | 24001 ft | 438 kts | 194° |
| 2026-05-06 20:07 | 50.13034 | 6.02342 | 23999 ft | 438 kts | 194° |
| 2026-05-06 20:08 | 50.10056 | 6.01271 | 24000 ft | 438 kts | 194° |
| 2026-05-06 20:08 | 50.07068 | 6.00709 | 23996 ft | 441 kts | 179° |
| 2026-05-06 20:08 | 50.04043 | 6.01541 | 24002 ft | 443 kts | 164° |
| 2026-05-06 20:08 | 50.01168 | 6.03299 | 23998 ft | 445 kts | 156° |
| 2026-05-06 20:09 | 49.98371 | 6.05420 | 23997 ft | 445 kts | 154° |
| 2026-05-06 20:09 | 49.95629 | 6.07568 | 23993 ft | 445 kts | 155° |
| 2026-05-06 20:09 | 49.92837 | 6.09667 | 23993 ft | 445 kts | 156° |
| 2026-05-06 20:09 | 49.90013 | 6.11663 | 23993 ft | 444 kts | 157° |
| 2026-05-06 20:10 | 49.87167 | 6.13563 | 23987 ft | 444 kts | 158° |
| 2026-05-06 20:10 | 49.84309 | 6.15396 | 23990 ft | 444 kts | 159° |
| 2026-05-06 20:10 | 49.81477 | 6.17169 | 23990 ft | 444 kts | 159° |
| 2026-05-06 20:10 | 49.78605 | 6.18950 | 23990 ft | 444 kts | 159° |
| 2026-05-06 20:11 | 49.75738 | 6.20721 | 23992 ft | 444 kts | 159° |
| 2026-05-06 20:11 | 49.72862 | 6.22498 | 23995 ft | 444 kts | 159° |
| 2026-05-06 20:11 | 49.69988 | 6.24276 | 23994 ft | 443 kts | 159° |
| 2026-05-06 20:11 | 49.67159 | 6.26029 | 23990 ft | 443 kts | 159° |
| 2026-05-06 20:12 | 49.64287 | 6.27811 | 23995 ft | 443 kts | 159° |
| 2026-05-06 20:12 | 49.61420 | 6.29622 | 23993 ft | 443 kts | 158° |
| 2026-05-06 20:12 | 49.58563 | 6.31459 | 23993 ft | 443 kts | 158° |
| 2026-05-06 20:12 | 49.55745 | 6.33284 | 23994 ft | 443 kts | 158° |
| 2026-05-06 20:13 | 49.52886 | 6.35138 | 23992 ft | 443 kts | 158° |
| 2026-05-06 20:13 | 49.50074 | 6.36959 | 23989 ft | 443 kts | 158° |
| 2026-05-06 20:13 | 49.47230 | 6.38796 | 23990 ft | 443 kts | 157° |
| 2026-05-06 20:13 | 49.44385 | 6.40679 | 23990 ft | 443 kts | 156° |
| 2026-05-06 20:14 | 49.41558 | 6.42592 | 23991 ft | 443 kts | 156° |
| 2026-05-06 20:14 | 49.38771 | 6.44499 | 23988 ft | 443 kts | 156° |
| 2026-05-06 20:14 | 49.35950 | 6.46434 | 23990 ft | 442 kts | 156° |
| 2026-05-06 20:14 | 49.33127 | 6.48365 | 23991 ft | 442 kts | 156° |
| 2026-05-06 20:15 | 49.30314 | 6.50284 | 23992 ft | 442 kts | 156° |
| 2026-05-06 20:15 | 49.27505 | 6.52193 | 23991 ft | 441 kts | 156° |
| 2026-05-06 20:15 | 49.24719 | 6.54082 | 23997 ft | 441 kts | 156° |
| 2026-05-06 20:15 | 49.21909 | 6.55982 | 23995 ft | 441 kts | 156° |
| 2026-05-06 20:16 | 49.19106 | 6.57874 | 23998 ft | 440 kts | 156° |
| 2026-05-06 20:16 | 49.16302 | 6.59765 | 24004 ft | 440 kts | 156° |
| 2026-05-06 20:16 | 49.13499 | 6.61652 | 24004 ft | 439 kts | 156° |
| 2026-05-06 20:16 | 49.10731 | 6.63514 | 24003 ft | 439 kts | 156° |
| 2026-05-06 20:17 | 49.07926 | 6.65398 | 24004 ft | 439 kts | 156° |
| 2026-05-06 20:17 | 49.05131 | 6.67274 | 24002 ft | 439 kts | 156° |
| 2026-05-06 20:17 | 49.02354 | 6.69135 | 24002 ft | 440 kts | 156° |
| 2026-05-06 20:17 | 48.99532 | 6.70984 | 23997 ft | 440 kts | 159° |
| 2026-05-06 20:18 | 48.96537 | 6.71993 | 24009 ft | 440 kts | 173° |
| 2026-05-06 20:18 | 48.93509 | 6.72181 | 24005 ft | 441 kts | 180° |
| 2026-05-06 20:18 | 48.90425 | 6.71986 | 24003 ft | 442 kts | 183° |
| 2026-05-06 20:18 | 48.87354 | 6.71659 | 24002 ft | 442 kts | 184° |
| 2026-05-06 20:19 | 48.84271 | 6.71330 | 24000 ft | 442 kts | 183° |
| 2026-05-06 20:19 | 48.81233 | 6.71059 | 24007 ft | 442 kts | 182° |
| 2026-05-06 20:19 | 48.78116 | 6.70843 | 24005 ft | 443 kts | 181° |
| 2026-05-06 20:19 | 48.75074 | 6.70681 | 24008 ft | 443 kts | 181° |
| 2026-05-06 20:20 | 48.71987 | 6.70547 | 24005 ft | 443 kts | 181° |
| 2026-05-06 20:20 | 48.68906 | 6.70429 | 24005 ft | 443 kts | 180° |
| 2026-05-06 20:20 | 48.65814 | 6.70317 | 24003 ft | 443 kts | 180° |
| 2026-05-06 20:20 | 48.62722 | 6.70206 | 24003 ft | 443 kts | 180° |
| 2026-05-06 20:21 | 48.59623 | 6.70092 | 24002 ft | 443 kts | 180° |
| 2026-05-06 20:21 | 48.56565 | 6.69977 | 24003 ft | 444 kts | 180° |
| 2026-05-06 20:21 | 48.53480 | 6.69859 | 24006 ft | 444 kts | 180° |
| 2026-05-06 20:21 | 48.50389 | 6.69740 | 24002 ft | 444 kts | 180° |
| 2026-05-06 20:22 | 48.47296 | 6.69621 | 24010 ft | 444 kts | 180° |
| 2026-05-06 20:22 | 48.44196 | 6.69501 | 24007 ft | 444 kts | 180° |
| 2026-05-06 20:22 | 48.41132 | 6.69383 | 24009 ft | 445 kts | 180° |
| 2026-05-06 20:22 | 48.38025 | 6.69263 | 24014 ft | 445 kts | 180° |
| 2026-05-06 20:23 | 48.34922 | 6.69144 | 24013 ft | 445 kts | 180° |
| 2026-05-06 20:23 | 48.31823 | 6.69025 | 24013 ft | 445 kts | 180° |
| 2026-05-06 20:23 | 48.28761 | 6.68907 | 24022 ft | 446 kts | 180° |
| 2026-05-06 20:23 | 48.25643 | 6.68787 | 24022 ft | 446 kts | 180° |
| 2026-05-06 20:24 | 48.22526 | 6.68668 | 24017 ft | 446 kts | 180° |
| 2026-05-06 20:24 | 48.19414 | 6.68548 | 24024 ft | 447 kts | 180° |
| 2026-05-06 20:24 | 48.16343 | 6.68431 | 24020 ft | 447 kts | 180° |
| 2026-05-06 20:24 | 48.13223 | 6.68312 | 24024 ft | 447 kts | 180° |
| 2026-05-06 20:25 | 48.10097 | 6.68194 | 24029 ft | 447 kts | 180° |
| 2026-05-06 20:25 | 48.07018 | 6.68078 | 24026 ft | 447 kts | 180° |
| 2026-05-06 20:25 | 48.03895 | 6.67959 | 24023 ft | 447 kts | 180° |
| 2026-05-06 20:25 | 48.00774 | 6.67841 | 24029 ft | 447 kts | 180° |
| 2026-05-06 20:26 | 47.97660 | 6.67722 | 24029 ft | 447 kts | 181° |
| 2026-05-06 20:26 | 47.94543 | 6.67604 | 24029 ft | 447 kts | 180° |
| 2026-05-06 20:26 | 47.91430 | 6.67486 | 24027 ft | 447 kts | 181° |
| 2026-05-06 20:26 | 47.88352 | 6.67370 | 24028 ft | 447 kts | 181° |
| 2026-05-06 20:27 | 47.85239 | 6.67253 | 24030 ft | 446 kts | 181° |
| 2026-05-06 20:27 | 47.82130 | 6.67137 | 24029 ft | 446 kts | 181° |
| 2026-05-06 20:27 | 47.79024 | 6.67020 | 24031 ft | 445 kts | 181° |
| 2026-05-06 20:27 | 47.75928 | 6.66903 | 24033 ft | 445 kts | 181° |
| 2026-05-06 20:28 | 47.72835 | 6.66787 | 24030 ft | 444 kts | 181° |
| 2026-05-06 20:28 | 47.69772 | 6.66672 | 24030 ft | 444 kts | 181° |
| 2026-05-06 20:28 | 47.66678 | 6.66556 | 24033 ft | 444 kts | 181° |
| 2026-05-06 20:28 | 47.63580 | 6.66440 | 24033 ft | 444 kts | 181° |
| 2026-05-06 20:29 | 47.60517 | 6.66326 | 24033 ft | 444 kts | 181° |
| 2026-05-06 20:29 | 47.57411 | 6.66210 | 24030 ft | 445 kts | 181° |
| 2026-05-06 20:29 | 47.54342 | 6.66096 | 24035 ft | 445 kts | 181° |
| 2026-05-06 20:29 | 47.51196 | 6.65979 | 24035 ft | 446 kts | 182° |
| 2026-05-06 20:30 | 47.48134 | 6.65865 | 24035 ft | 446 kts | 182° |
| 2026-05-06 20:30 | 47.41894 | 6.65633 | 24039 ft | 447 kts | 182° |
| 2026-05-06 20:30 | 47.38855 | 6.65035 | 24037 ft | 446 kts | 197° |
| 2026-05-06 20:31 | 47.36045 | 6.63133 | 24043 ft | 443 kts | 214° |
| 2026-05-06 20:31 | 47.33664 | 6.60265 | 24042 ft | 442 kts | 225° |
| 2026-05-06 20:31 | 47.31532 | 6.57057 | 24038 ft | 442 kts | 228° |
| 2026-05-06 20:31 | 47.29419 | 6.53750 | 24041 ft | 443 kts | 227° |
| 2026-05-06 20:32 | 47.27252 | 6.50497 | 24041 ft | 443 kts | 226° |
| 2026-05-06 20:32 | 47.25046 | 6.47388 | 24040 ft | 444 kts | 224° |
| 2026-05-06 20:32 | 47.22750 | 6.44330 | 24043 ft | 444 kts | 223° |
| 2026-05-06 20:32 | 47.20414 | 6.41339 | 24045 ft | 444 kts | 222° |
| 2026-05-06 20:33 | 47.18051 | 6.38387 | 24044 ft | 444 kts | 221° |
| 2026-05-06 20:33 | 47.15704 | 6.35484 | 24044 ft | 444 kts | 221° |
| 2026-05-06 20:33 | 47.13326 | 6.32550 | 24041 ft | 444 kts | 221° |
| 2026-05-06 20:33 | 47.10955 | 6.29630 | 24045 ft | 444 kts | 221° |
| 2026-05-06 20:34 | 47.08583 | 6.26702 | 24047 ft | 444 kts | 221° |
| 2026-05-06 20:34 | 47.06144 | 6.23999 | 24036 ft | 446 kts | 210° |
| 2026-05-06 20:34 | 47.03237 | 6.22356 | 24043 ft | 448 kts | 194° |
| 2026-05-06 20:34 | 47.00139 | 6.21740 | 24048 ft | 450 kts | 185° |
| 2026-05-06 20:35 | 46.96995 | 6.21593 | 24049 ft | 450 kts | 181° |
| 2026-05-06 20:35 | 46.93889 | 6.21561 | 24047 ft | 451 kts | 182° |
| 2026-05-06 20:35 | 46.90756 | 6.21476 | 24047 ft | 450 kts | 183° |
| 2026-05-06 20:35 | 46.87624 | 6.21284 | 24052 ft | 450 kts | 184° |
| 2026-05-06 20:36 | 46.84495 | 6.20992 | 24049 ft | 450 kts | 185° |
| 2026-05-06 20:36 | 46.81376 | 6.20629 | 24052 ft | 450 kts | 186° |
| 2026-05-06 20:36 | 46.78260 | 6.20224 | 24049 ft | 449 kts | 187° |
| 2026-05-06 20:36 | 46.75181 | 6.19806 | 24052 ft | 449 kts | 187° |
| 2026-05-06 20:37 | 46.72062 | 6.19377 | 24052 ft | 449 kts | 187° |
| 2026-05-06 20:37 | 46.68945 | 6.18951 | 24054 ft | 449 kts | 186° |
| 2026-05-06 20:37 | 46.65827 | 6.18531 | 24056 ft | 449 kts | 186° |
| 2026-05-06 20:37 | 46.62711 | 6.18115 | 24053 ft | 449 kts | 186° |
| 2026-05-06 20:38 | 46.59594 | 6.17702 | 24053 ft | 448 kts | 187° |
| 2026-05-06 20:38 | 46.56488 | 6.17292 | 24055 ft | 448 kts | 187° |
| 2026-05-06 20:38 | 46.53407 | 6.16885 | 24059 ft | 448 kts | 187° |
| 2026-05-06 20:38 | 46.50310 | 6.16478 | 24058 ft | 447 kts | 186° |
| 2026-05-06 20:39 | 46.47206 | 6.16071 | 24060 ft | 447 kts | 186° |
| 2026-05-06 20:39 | 46.44108 | 6.15666 | 24065 ft | 446 kts | 186° |
| 2026-05-06 20:39 | 46.41045 | 6.15265 | 24070 ft | 446 kts | 186° |
| 2026-05-06 20:39 | 46.37955 | 6.14861 | 24072 ft | 445 kts | 186° |
| 2026-05-06 20:40 | 46.34867 | 6.14458 | 24072 ft | 445 kts | 186° |
| 2026-05-06 20:40 | 46.31784 | 6.14055 | 24075 ft | 445 kts | 186° |
| 2026-05-06 20:40 | 46.28688 | 6.13652 | 24076 ft | 445 kts | 186° |
| 2026-05-06 20:40 | 46.25605 | 6.13238 | 24075 ft | 444 kts | 187° |
| 2026-05-06 20:41 | 46.22532 | 6.12692 | 24075 ft | 444 kts | 189° |
| 2026-05-06 20:41 | 46.19479 | 6.12040 | 24075 ft | 443 kts | 190° |
| 2026-05-06 20:41 | 46.16457 | 6.11344 | 24076 ft | 443 kts | 191° |
| 2026-05-06 20:41 | 46.13411 | 6.10628 | 24071 ft | 443 kts | 191° |
| 2026-05-06 20:42 | 46.10352 | 6.09914 | 24070 ft | 443 kts | 191° |
| 2026-05-06 20:42 | 46.07305 | 6.09215 | 24074 ft | 443 kts | 190° |
| 2026-05-06 20:42 | 46.04287 | 6.08532 | 24074 ft | 443 kts | 190° |
| 2026-05-06 20:42 | 46.01239 | 6.07851 | 24073 ft | 443 kts | 190° |
| 2026-05-06 20:43 | 45.98189 | 6.07176 | 24078 ft | 443 kts | 190° |
| 2026-05-06 20:43 | 45.95132 | 6.06501 | 24071 ft | 443 kts | 190° |
| 2026-05-06 20:43 | 45.92110 | 6.05836 | 24074 ft | 443 kts | 190° |
| 2026-05-06 20:43 | 45.89053 | 6.05163 | 24078 ft | 443 kts | 190° |
| 2026-05-06 20:44 | 45.85995 | 6.04491 | 24073 ft | 442 kts | 190° |
| 2026-05-06 20:44 | 45.82949 | 6.03819 | 24075 ft | 442 kts | 190° |
| 2026-05-06 20:44 | 45.79945 | 6.03156 | 24075 ft | 442 kts | 190° |
| 2026-05-06 20:44 | 45.76906 | 6.02485 | 24070 ft | 441 kts | 190° |
| 2026-05-06 20:45 | 45.73855 | 6.01810 | 24070 ft | 441 kts | 190° |
| 2026-05-06 20:45 | 45.70809 | 6.01138 | 24071 ft | 441 kts | 190° |
| 2026-05-06 20:45 | 45.67806 | 6.00477 | 24074 ft | 441 kts | 190° |
| 2026-05-06 20:45 | 45.64774 | 5.99810 | 24071 ft | 441 kts | 190° |
| 2026-05-06 20:46 | 45.61735 | 5.99142 | 24076 ft | 440 kts | 190° |
| 2026-05-06 20:46 | 45.58700 | 5.98476 | 24079 ft | 440 kts | 190° |
| 2026-05-06 20:46 | 45.55705 | 5.97819 | 24074 ft | 440 kts | 190° |
| 2026-05-06 20:46 | 45.52676 | 5.97156 | 24074 ft | 439 kts | 190° |
| 2026-05-06 20:47 | 45.49648 | 5.96494 | 24075 ft | 439 kts | 190° |
| 2026-05-06 20:47 | 45.46631 | 5.95777 | 24076 ft | 439 kts | 192° |
| 2026-05-06 20:47 | 45.43635 | 5.94920 | 24067 ft | 438 kts | 193° |
| 2026-05-06 20:47 | 45.40692 | 5.93999 | 24077 ft | 438 kts | 194° |
| 2026-05-06 20:48 | 45.37712 | 5.93035 | 24077 ft | 437 kts | 194° |
| 2026-05-06 20:48 | 45.34743 | 5.92071 | 24075 ft | 436 kts | 194° |
| 2026-05-06 20:48 | 45.31787 | 5.91120 | 24073 ft | 436 kts | 194° |
| 2026-05-06 20:48 | 45.28854 | 5.90188 | 24073 ft | 435 kts | 194° |
| 2026-05-06 20:49 | 45.25885 | 5.89255 | 24080 ft | 435 kts | 194° |
| 2026-05-06 20:49 | 45.22929 | 5.88332 | 24078 ft | 434 kts | 194° |
| 2026-05-06 20:49 | 45.19969 | 5.87413 | 24077 ft | 434 kts | 194° |
| 2026-05-06 20:49 | 45.17012 | 5.86497 | 24080 ft | 434 kts | 194° |
| 2026-05-06 20:50 | 45.14097 | 5.85595 | 24075 ft | 433 kts | 194° |
| 2026-05-06 20:50 | 45.11145 | 5.84683 | 24072 ft | 432 kts | 194° |
| 2026-05-06 20:50 | 45.08200 | 5.83774 | 24078 ft | 432 kts | 195° |
| 2026-05-06 20:50 | 45.05289 | 5.82876 | 24087 ft | 431 kts | 195° |
| 2026-05-06 20:51 | 45.02350 | 5.81968 | 24090 ft | 431 kts | 195° |
| 2026-05-06 20:51 | 45.00408 | 5.81367 | 24087 ft | 430 kts | 195° |
| 2026-05-06 20:51 | 44.97477 | 5.80464 | 24074 ft | 430 kts | 195° |
| 2026-05-06 20:51 | 44.94553 | 5.79565 | 24083 ft | 429 kts | 195° |
| 2026-05-06 20:52 | 44.91628 | 5.78668 | 24083 ft | 428 kts | 195° |
| 2026-05-06 20:52 | 44.88712 | 5.77773 | 24086 ft | 428 kts | 195° |
| 2026-05-06 20:52 | 44.85838 | 5.76892 | 24082 ft | 427 kts | 195° |
| 2026-05-06 20:52 | 44.82936 | 5.76003 | 24087 ft | 426 kts | 195° |
| 2026-05-06 20:53 | 44.80032 | 5.75115 | 24086 ft | 426 kts | 195° |
| 2026-05-06 20:53 | 44.77134 | 5.74229 | 24086 ft | 425 kts | 195° |
| 2026-05-06 20:53 | 44.74236 | 5.73345 | 24090 ft | 425 kts | 195° |
| 2026-05-06 20:53 | 44.71342 | 5.72463 | 24087 ft | 425 kts | 195° |
| 2026-05-06 20:54 | 44.68484 | 5.71592 | 24089 ft | 424 kts | 195° |
| 2026-05-06 20:54 | 44.65597 | 5.70711 | 24083 ft | 424 kts | 195° |
| 2026-05-06 20:54 | 44.62704 | 5.69830 | 24090 ft | 424 kts | 195° |
| 2026-05-06 20:54 | 44.59813 | 5.68951 | 24087 ft | 424 kts | 195° |
| 2026-05-06 20:55 | 44.56964 | 5.68085 | 24085 ft | 424 kts | 195° |
| 2026-05-06 20:55 | 44.54079 | 5.67209 | 24088 ft | 424 kts | 195° |
| 2026-05-06 20:55 | 44.51194 | 5.66335 | 24084 ft | 424 kts | 195° |
| 2026-05-06 20:55 | 44.48305 | 5.65461 | 24084 ft | 423 kts | 195° |
| 2026-05-06 20:56 | 44.45419 | 5.64589 | 24081 ft | 424 kts | 195° |
| 2026-05-06 20:56 | 44.42530 | 5.63716 | 24085 ft | 424 kts | 195° |
| 2026-05-06 20:56 | 44.39684 | 5.62857 | 24079 ft | 423 kts | 195° |
| 2026-05-06 20:56 | 44.36841 | 5.61780 | 24081 ft | 421 kts | 200° |
| 2026-05-06 20:57 | 44.34073 | 5.60435 | 24080 ft | 420 kts | 203° |
| 2026-05-06 20:57 | 44.31340 | 5.58943 | 24080 ft | 420 kts | 205° |
| 2026-05-06 20:57 | 44.28662 | 5.57416 | 24076 ft | 420 kts | 205° |
| 2026-05-06 20:57 | 44.25950 | 5.55859 | 24080 ft | 420 kts | 205° |
| 2026-05-06 20:58 | 44.23236 | 5.54317 | 24071 ft | 420 kts | 205° |
| 2026-05-06 20:58 | 44.20521 | 5.52797 | 24072 ft | 419 kts | 205° |
| 2026-05-06 20:58 | 44.17836 | 5.51311 | 24078 ft | 419 kts | 204° |
| 2026-05-06 20:58 | 44.15114 | 5.49820 | 24075 ft | 419 kts | 204° |
| 2026-05-06 20:59 | 44.12384 | 5.48332 | 24071 ft | 419 kts | 204° |
| 2026-05-06 20:59 | 44.09690 | 5.46869 | 24071 ft | 420 kts | 204° |
| 2026-05-06 20:59 | 44.06964 | 5.45390 | 24071 ft | 420 kts | 204° |
| 2026-05-06 20:59 | 44.04232 | 5.43909 | 24068 ft | 420 kts | 204° |
| 2026-05-06 21:00 | 44.01499 | 5.42427 | 24078 ft | 424 kts | 204° |
| 2026-05-06 21:00 | 43.98705 | 5.40910 | 24066 ft | 438 kts | 204° |
| 2026-05-06 21:00 | 43.95850 | 5.39358 | 24070 ft | 449 kts | 204° |
| 2026-05-06 21:00 | 43.92923 | 5.37772 | 24068 ft | 452 kts | 204° |
| 2026-05-06 21:01 | 43.89982 | 5.36183 | 24068 ft | 452 kts | 204° |
| 2026-05-06 21:01 | 43.87078 | 5.34617 | 24068 ft | 452 kts | 204° |
| 2026-05-06 21:01 | 43.84142 | 5.33035 | 24072 ft | 452 kts | 204° |
| 2026-05-06 21:01 | 43.81204 | 5.31453 | 24072 ft | 452 kts | 204° |
| 2026-05-06 21:02 | 43.78252 | 5.29864 | 24072 ft | 452 kts | 204° |
| 2026-05-06 21:02 | 43.75316 | 5.28284 | 24071 ft | 452 kts | 204° |
| 2026-05-06 21:02 | 43.72410 | 5.26722 | 24071 ft | 452 kts | 204° |
| 2026-05-06 21:02 | 43.69473 | 5.25146 | 24072 ft | 453 kts | 204° |
| 2026-05-06 21:03 | 43.66519 | 5.23562 | 24076 ft | 453 kts | 204° |
| 2026-05-06 21:03 | 43.63575 | 5.21984 | 24073 ft | 453 kts | 204° |
| 2026-05-06 21:03 | 43.60672 | 5.20430 | 24070 ft | 453 kts | 204° |
| 2026-05-06 21:03 | 43.57732 | 5.18858 | 24074 ft | 453 kts | 204° |
| 2026-05-06 21:04 | 43.54780 | 5.17281 | 24074 ft | 453 kts | 204° |
| 2026-05-06 21:04 | 43.51833 | 5.15708 | 24075 ft | 453 kts | 204° |
| 2026-05-06 21:04 | 43.48888 | 5.14138 | 24106 ft | 453 kts | 204° |
| 2026-05-06 21:04 | 43.45978 | 5.12589 | 24102 ft | 454 kts | 204° |
| 2026-05-06 21:05 | 43.43023 | 5.11017 | 24103 ft | 454 kts | 204° |
| 2026-05-06 21:05 | 43.40064 | 5.09440 | 24103 ft | 454 kts | 204° |
| 2026-05-06 21:05 | 43.37255 | 5.07571 | 24098 ft | 452 kts | 211° |
| 2026-05-06 21:05 | 43.34578 | 5.05310 | 24095 ft | 451 kts | 216° |
| 2026-05-06 21:06 | 43.31992 | 5.02861 | 24090 ft | 450 kts | 217° |
| 2026-05-06 21:06 | 43.29450 | 5.00348 | 24084 ft | 446 kts | 218° |
| 2026-05-06 21:06 | 43.26936 | 4.97855 | 24087 ft | 447 kts | 218° |
| 2026-05-06 21:06 | 43.24415 | 4.95381 | 24076 ft | 454 kts | 217° |
| 2026-05-06 21:07 | 43.21818 | 4.92876 | 24075 ft | 456 kts | 217° |
| 2026-05-06 21:07 | 43.19206 | 4.90392 | 24074 ft | 456 kts | 217° |
| 2026-05-06 21:07 | 43.16591 | 4.87931 | 24068 ft | 456 kts | 217° |
| 2026-05-06 21:07 | 43.13967 | 4.85476 | 24068 ft | 456 kts | 216° |
| 2026-05-06 21:08 | 43.11379 | 4.83062 | 24071 ft | 455 kts | 216° |
| 2026-05-06 21:08 | 43.08750 | 4.80611 | 24076 ft | 455 kts | 216° |
| 2026-05-06 21:08 | 43.06121 | 4.78188 | 24078 ft | 455 kts | 215° |
| 2026-05-06 21:08 | 43.03419 | 4.75914 | 24082 ft | 456 kts | 213° |
| 2026-05-06 21:09 | 43.00654 | 4.73755 | 24082 ft | 456 kts | 212° |
| 2026-05-06 21:09 | 42.97875 | 4.71666 | 24081 ft | 456 kts | 211° |
| 2026-05-06 21:09 | 42.95117 | 4.69622 | 24083 ft | 455 kts | 211° |
| 2026-05-06 21:09 | 42.92326 | 4.67554 | 24086 ft | 455 kts | 211° |
| 2026-05-06 21:10 | 42.89541 | 4.65481 | 24086 ft | 454 kts | 211° |
| 2026-05-06 21:10 | 42.86805 | 4.63433 | 24089 ft | 454 kts | 211° |
| 2026-05-06 21:10 | 42.84033 | 4.61349 | 24088 ft | 454 kts | 211° |
| 2026-05-06 21:10 | 42.81255 | 4.59257 | 24089 ft | 454 kts | 211° |
| 2026-05-06 21:11 | 42.78482 | 4.57166 | 24096 ft | 454 kts | 211° |
| 2026-05-06 21:11 | 42.75745 | 4.55105 | 24093 ft | 454 kts | 212° |
| 2026-05-06 21:11 | 42.72975 | 4.53021 | 24097 ft | 454 kts | 211° |
| 2026-05-06 21:11 | 42.70201 | 4.50936 | 24096 ft | 454 kts | 211° |
| 2026-05-06 21:12 | 42.67460 | 4.48879 | 24099 ft | 454 kts | 212° |
| 2026-05-06 21:12 | 42.64689 | 4.46802 | 24098 ft | 454 kts | 211° |
| 2026-05-06 21:12 | 42.61921 | 4.44729 | 24100 ft | 454 kts | 211° |
| 2026-05-06 21:12 | 42.59151 | 4.42658 | 24101 ft | 454 kts | 212° |
| 2026-05-06 21:13 | 42.56376 | 4.40585 | 24101 ft | 454 kts | 211° |
| 2026-05-06 21:13 | 42.53608 | 4.38519 | 24102 ft | 454 kts | 211° |
| 2026-05-06 21:13 | 42.50872 | 4.36480 | 24102 ft | 454 kts | 211° |
| 2026-05-06 21:13 | 42.48098 | 4.34413 | 24107 ft | 454 kts | 211° |
| 2026-05-06 21:14 | 42.45323 | 4.32348 | 24105 ft | 454 kts | 211° |
| 2026-05-06 21:14 | 42.42548 | 4.30286 | 24110 ft | 454 kts | 211° |
| 2026-05-06 21:14 | 42.39807 | 4.28250 | 24106 ft | 454 kts | 211° |
| 2026-05-06 21:14 | 42.37024 | 4.26186 | 24111 ft | 455 kts | 211° |
| 2026-05-06 21:15 | 42.34242 | 4.24125 | 24109 ft | 455 kts | 211° |
| 2026-05-06 21:15 | 42.31456 | 4.22062 | 24110 ft | 455 kts | 211° |
| 2026-05-06 21:15 | 42.28709 | 4.20030 | 24110 ft | 455 kts | 211° |
| 2026-05-06 21:15 | 42.25918 | 4.17969 | 24112 ft | 455 kts | 211° |
| 2026-05-06 21:16 | 42.23135 | 4.15915 | 24112 ft | 456 kts | 212° |
| 2026-05-06 21:16 | 42.20347 | 4.13859 | 24119 ft | 455 kts | 212° |
| 2026-05-06 21:16 | 42.17560 | 4.11806 | 24108 ft | 455 kts | 212° |
| 2026-05-06 21:16 | 42.14809 | 4.09783 | 24118 ft | 454 kts | 212° |
| 2026-05-06 21:17 | 42.12033 | 4.07743 | 24118 ft | 454 kts | 212° |
| 2026-05-06 21:17 | 42.09250 | 4.05700 | 24115 ft | 454 kts | 212° |
| 2026-05-06 21:17 | 42.06471 | 4.03661 | 24114 ft | 453 kts | 212° |
| 2026-05-06 21:17 | 42.03731 | 4.01654 | 24115 ft | 453 kts | 212° |
| 2026-05-06 21:18 | 42.00948 | 3.99617 | 24114 ft | 453 kts | 212° |
| 2026-05-06 21:18 | 41.98177 | 3.97590 | 24114 ft | 452 kts | 212° |
| 2026-05-06 21:18 | 41.95410 | 3.95569 | 24108 ft | 452 kts | 212° |
| 2026-05-06 21:18 | 41.92609 | 3.93631 | 24106 ft | 455 kts | 206° |
| 2026-05-06 21:19 | 41.89619 | 3.92327 | 24110 ft | 459 kts | 199° |
| 2026-05-06 21:19 | 41.86477 | 3.91453 | 24107 ft | 461 kts | 194° |
| 2026-05-06 21:19 | 41.83288 | 3.90798 | 24105 ft | 462 kts | 193° |
| 2026-05-06 21:19 | 41.80129 | 3.90219 | 24105 ft | 461 kts | 193° |
| 2026-05-06 21:20 | 41.76943 | 3.89625 | 24106 ft | 460 kts | 193° |
| 2026-05-06 21:20 | 41.73772 | 3.88994 | 24108 ft | 460 kts | 193° |
| 2026-05-06 21:20 | 41.70610 | 3.88324 | 24107 ft | 459 kts | 194° |
| 2026-05-06 21:20 | 41.67449 | 3.87623 | 24104 ft | 459 kts | 194° |
| 2026-05-06 21:21 | 41.64327 | 3.86913 | 24104 ft | 459 kts | 194° |
| 2026-05-06 21:21 | 41.61173 | 3.86187 | 24103 ft | 459 kts | 194° |
| 2026-05-06 21:21 | 41.58030 | 3.85459 | 24103 ft | 459 kts | 194° |
| 2026-05-06 21:21 | 41.54866 | 3.84727 | 24104 ft | 459 kts | 194° |
| 2026-05-06 21:22 | 41.51750 | 3.84008 | 24104 ft | 459 kts | 194° |
| 2026-05-06 21:22 | 41.48602 | 3.83284 | 24100 ft | 459 kts | 194° |
| 2026-05-06 21:22 | 41.45454 | 3.82562 | 24101 ft | 459 kts | 194° |
| 2026-05-06 21:22 | 41.42297 | 3.81839 | 24101 ft | 459 kts | 194° |
| 2026-05-06 21:23 | 41.39146 | 3.81119 | 24101 ft | 459 kts | 194° |
| 2026-05-06 21:23 | 41.36030 | 3.80408 | 24102 ft | 459 kts | 194° |
| 2026-05-06 21:23 | 41.32884 | 3.79691 | 24100 ft | 459 kts | 194° |
| 2026-05-06 21:23 | 41.29727 | 3.78972 | 24100 ft | 459 kts | 194° |
| 2026-05-06 21:24 | 41.26585 | 3.78257 | 24097 ft | 459 kts | 194° |
| 2026-05-06 21:24 | 41.23426 | 3.77539 | 24099 ft | 459 kts | 194° |
| 2026-05-06 21:24 | 41.20297 | 3.76831 | 23850 ft | 449 kts | 194° |
| 2026-05-06 21:24 | 41.17273 | 3.76150 | 22982 ft | 444 kts | 194° |
| 2026-05-06 21:25 | 41.14274 | 3.75244 | 21962 ft | 439 kts | 200° |
| 2026-05-06 21:25 | 41.11388 | 3.73986 | 21039 ft | 434 kts | 204° |
| 2026-05-06 21:25 | 41.08585 | 3.72554 | 20144 ft | 429 kts | 205° |
| 2026-05-06 21:25 | 41.05825 | 3.71055 | 19260 ft | 426 kts | 206° |
| 2026-05-06 21:26 | 41.03094 | 3.69555 | 18406 ft | 423 kts | 206° |
| 2026-05-06 21:26 | 41.00378 | 3.68081 | 17450 ft | 420 kts | 205° |
| 2026-05-06 21:26 | 40.97705 | 3.66657 | 16537 ft | 417 kts | 204° |
| 2026-05-06 21:26 | 40.95020 | 3.65251 | 15720 ft | 412 kts | 204° |
| 2026-05-06 21:27 | 40.92387 | 3.63891 | 15248 ft | 399 kts | 203° |
| 2026-05-06 21:27 | 40.89851 | 3.62593 | 15111 ft | 378 kts | 203° |
| 2026-05-06 21:27 | 40.87459 | 3.61376 | 15098 ft | 357 kts | 203° |
| 2026-05-06 21:27 | 40.85231 | 3.60243 | 15096 ft | 337 kts | 204° |
| 2026-05-06 21:28 | 40.83107 | 3.59162 | 15100 ft | 318 kts | 204° |
| 2026-05-06 21:28 | 40.81099 | 3.58139 | 15097 ft | 300 kts | 204° |
| 2026-05-06 21:28 | 40.79203 | 3.57172 | 15096 ft | 284 kts | 204° |
| 2026-05-06 21:28 | 40.77407 | 3.56255 | 15094 ft | 268 kts | 204° |
| 2026-05-06 21:29 | 40.75734 | 3.55401 | 15095 ft | 255 kts | 204° |
| 2026-05-06 21:29 | 40.74095 | 3.54562 | 15095 ft | 251 kts | 205° |
| 2026-05-06 21:29 | 40.72467 | 3.53726 | 15095 ft | 251 kts | 205° |
| 2026-05-06 21:29 | 40.70833 | 3.52886 | 15091 ft | 252 kts | 205° |
| 2026-05-06 21:30 | 40.69195 | 3.52047 | 15090 ft | 252 kts | 205° |
| 2026-05-06 21:30 | 40.67505 | 3.51179 | 15084 ft | 266 kts | 204° |
| 2026-05-06 21:30 | 40.65827 | 3.50324 | 15086 ft | 257 kts | 204° |
| 2026-05-06 21:30 | 40.64177 | 3.49489 | 15091 ft | 251 kts | 204° |
| 2026-05-06 21:31 | 40.62544 | 3.48661 | 15096 ft | 251 kts | 204° |
| 2026-05-06 21:31 | 40.60912 | 3.47833 | 15092 ft | 251 kts | 204° |
| 2026-05-06 21:31 | 40.59299 | 3.47014 | 15088 ft | 251 kts | 204° |
| 2026-05-06 21:31 | 40.57669 | 3.46186 | 15089 ft | 251 kts | 204° |
| 2026-05-06 21:32 | 40.56035 | 3.45357 | 15089 ft | 251 kts | 204° |
| 2026-05-06 21:32 | 40.52772 | 3.43703 | 15088 ft | 251 kts | 204° |
| 2026-05-06 21:32 | 40.51144 | 3.42878 | 15085 ft | 251 kts | 204° |
| 2026-05-06 21:33 | 40.49537 | 3.42065 | 15092 ft | 251 kts | 204° |
| 2026-05-06 21:33 | 40.47900 | 3.41237 | 15087 ft | 251 kts | 204° |
| 2026-05-06 21:33 | 40.46269 | 3.40412 | 15086 ft | 250 kts | 204° |
| 2026-05-06 21:33 | 40.44639 | 3.39585 | 15088 ft | 250 kts | 205° |
| 2026-05-06 21:34 | 40.43049 | 3.38731 | 15088 ft | 250 kts | 206° |
| 2026-05-06 21:34 | 40.41444 | 3.37847 | 15089 ft | 250 kts | 206° |
| 2026-05-06 21:34 | 40.39841 | 3.36959 | 15085 ft | 249 kts | 206° |
| 2026-05-06 21:34 | 40.38240 | 3.36071 | 15085 ft | 249 kts | 206° |
| 2026-05-06 21:35 | 40.36640 | 3.35184 | 15088 ft | 249 kts | 206° |
| 2026-05-06 21:35 | 40.35058 | 3.34307 | 15085 ft | 249 kts | 206° |
| 2026-05-06 21:35 | 40.33454 | 3.33418 | 15087 ft | 249 kts | 206° |
| 2026-05-06 21:35 | 40.31855 | 3.32533 | 15090 ft | 249 kts | 206° |
| 2026-05-06 21:36 | 40.30257 | 3.31648 | 15089 ft | 249 kts | 206° |
| 2026-05-06 21:36 | 40.28654 | 3.30762 | 15084 ft | 249 kts | 206° |
| 2026-05-06 21:36 | 40.27056 | 3.29879 | 15090 ft | 249 kts | 206° |
| 2026-05-06 21:36 | 40.25474 | 3.29004 | 15090 ft | 249 kts | 206° |
| 2026-05-06 21:37 | 40.23871 | 3.28119 | 15089 ft | 249 kts | 206° |
| 2026-05-06 21:37 | 40.22270 | 3.27236 | 15086 ft | 249 kts | 206° |
| 2026-05-06 21:37 | 40.20657 | 3.26345 | 15079 ft | 255 kts | 206° |
| 2026-05-06 21:37 | 40.18986 | 3.25421 | 15085 ft | 263 kts | 206° |
| 2026-05-06 21:38 | 40.17316 | 3.24501 | 15087 ft | 264 kts | 206° |
| 2026-05-06 21:38 | 40.15620 | 3.23568 | 15086 ft | 264 kts | 206° |
| 2026-05-06 21:38 | 40.13918 | 3.22632 | 15087 ft | 264 kts | 206° |
| 2026-05-06 21:38 | 40.12223 | 3.21700 | 15085 ft | 264 kts | 206° |
| 2026-05-06 21:39 | 40.10543 | 3.20777 | 15084 ft | 264 kts | 206° |
| 2026-05-06 21:39 | 40.08851 | 3.19847 | 14904 ft | 265 kts | 206° |
| 2026-05-06 21:39 | 40.07116 | 3.18891 | 14245 ft | 277 kts | 206° |
| 2026-05-06 21:39 | 40.05301 | 3.17891 | 13476 ft | 289 kts | 205° |
| 2026-05-06 21:40 | 40.03410 | 3.16852 | 12501 ft | 300 kts | 205° |
| 2026-05-06 21:40 | 40.02117 | 3.16142 | 11767 ft | 308 kts | 204° |
| 2026-05-06 21:40 | 40.00095 | 3.15034 | 10637 ft | 321 kts | 204° |
| 2026-05-06 21:40 | 39.97998 | 3.13886 | 9403 ft | 332 kts | 203° |
| 2026-05-06 21:41 | 39.95831 | 3.12703 | 8025 ft | 342 kts | 203° |
| 2026-05-06 21:41 | 39.93600 | 3.11483 | 6657 ft | 351 kts | 203° |
| 2026-05-06 21:41 | 39.91392 | 3.10278 | 5935 ft | 339 kts | 202° |
| 2026-05-06 21:41 | 39.89297 | 3.09135 | 5724 ft | 312 kts | 202° |
| 2026-05-06 21:42 | 39.87405 | 3.08103 | 5917 ft | 276 kts | 202° |
| 2026-05-06 21:42 | 39.85731 | 3.07191 | 6083 ft | 246 kts | 203° |
| 2026-05-06 21:42 | 39.84188 | 3.06350 | 6100 ft | 238 kts | 203° |
| 2026-05-06 21:42 | 39.82675 | 3.05525 | 6109 ft | 228 kts | 203° |
| 2026-05-06 21:43 | 39.81291 | 3.04771 | 6107 ft | 209 kts | 202° |
| 2026-05-06 21:43 | 39.80007 | 3.04072 | 6101 ft | 189 kts | 203° |
| 2026-05-06 21:43 | 39.78863 | 3.03449 | 6102 ft | 167 kts | 202° |
| 2026-05-06 21:43 | 39.77823 | 3.02883 | 6106 ft | 160 kts | 202° |
| 2026-05-06 21:44 | 39.76883 | 3.02371 | 6357 ft | 161 kts | 203° |
| 2026-05-06 21:44 | 39.75848 | 3.01808 | 6228 ft | 161 kts | 202° |
| 2026-05-06 21:44 | 39.74815 | 3.01246 | 6116 ft | 162 kts | 202° |
| 2026-05-06 21:44 | 39.73778 | 3.00682 | 6094 ft | 162 kts | 202° |
| 2026-05-06 21:45 | 39.72736 | 3.00117 | 6089 ft | 161 kts | 202° |
| 2026-05-06 21:45 | 39.71684 | 2.99545 | 5723 ft | 170 kts | 202° |
| 2026-05-06 21:45 | 39.70525 | 2.98917 | 5272 ft | 197 kts | 202° |
| 2026-05-06 21:45 | 39.69207 | 2.98202 | 5099 ft | 211 kts | 202° |
| 2026-05-06 21:46 | 39.67840 | 2.97461 | 5087 ft | 212 kts | 202° |
| 2026-05-06 21:46 | 39.66474 | 2.96720 | 5095 ft | 212 kts | 202° |
| 2026-05-06 21:46 | 39.65179 | 2.95836 | 4820 ft | 217 kts | 216° |
| 2026-05-06 21:46 | 39.64136 | 2.94416 | 4422 ft | 215 kts | 234° |
| 2026-05-06 21:47 | 39.63359 | 2.92794 | 4194 ft | 207 kts | 239° |
| 2026-05-06 21:47 | 39.62638 | 2.91226 | 3900 ft | 197 kts | 238° |
| 2026-05-06 21:47 | 39.61942 | 2.89745 | 3554 ft | 189 kts | 237° |
| 2026-05-06 21:47 | 39.61278 | 2.88346 | 3249 ft | 176 kts | 237° |
| 2026-05-06 21:48 | 39.60635 | 2.86992 | 2720 ft | 178 kts | 237° |
| 2026-05-06 21:48 | 39.59979 | 2.85603 | 2142 ft | 182 kts | 237° |
| 2026-05-06 21:48 | 39.59316 | 2.84193 | 1617 ft | 182 kts | 237° |
| 2026-05-06 21:48 | 39.58681 | 2.82842 | 1306 ft | 169 kts | 238° |
| 2026-05-06 21:49 | 39.58099 | 2.81606 | 1064 ft | 155 kts | 238° |
| 2026-05-06 21:49 | 39.57563 | 2.80470 | 850 ft | 143 kts | 238° |
| 2026-05-06 21:49 | 39.57044 | 2.79368 | 677 ft | 142 kts | 239° |
| 2026-05-06 21:49 | 39.56534 | 2.78268 | 440 ft | 142 kts | 240° |
| 2026-05-06 21:50 | 39.56031 | 2.77175 | 229 ft | 140 kts | 238° |
| 2026-05-06 21:50 | 39.55520 | 2.76111 | 58 ft | 141 kts | 238° |
| 2026-05-06 21:50 | 39.55038 | 2.75104 | 27 ft | 102 kts | 239° |
| 2026-05-06 21:50 | 39.54813 | 2.74514 | 31 ft | 46 kts | 260° |
| 2026-05-06 21:51 | 39.54805 | 2.74392 | 31 ft | 0 kts | 268° |
| 2026-05-06 21:52 | 39.54803 | 2.74335 | 31 ft | 21 kts | 268° |
| 2026-05-06 21:52 | 39.54787 | 2.74128 | 32 ft | 23 kts | 246° |
| 2026-05-06 21:52 | 39.54756 | 2.74055 | 33 ft | 0 kts | 237° |
| 2026-05-06 21:53 | 39.54739 | 2.74015 | 32 ft | 15 kts | 248° |
| 2026-05-06 21:53 | 39.54762 | 2.73899 | 33 ft | 11 kts | 258° |
| 2026-05-06 21:53 | 39.54705 | 2.73771 | 34 ft | 20 kts | 238° |
| 2026-05-06 21:53 | 39.54659 | 2.73616 | 34 ft | 17 kts | 278° |
| 2026-05-06 21:54 | 39.54654 | 2.73470 | 35 ft | 14 kts | 256° |
| 2026-05-06 21:54 | 39.54648 | 2.73438 | 33 ft | 0 kts | 255° |